createdAt,value
2018-05-06T00:01:39.088Z,43.75
2018-05-06T00:04:08.392Z,44.51
2018-05-06T00:06:37.731Z,44.27
2018-05-06T00:09:08.807Z,44.12
2018-05-06T00:11:38.468Z,43.71
2018-05-06T00:14:07.508Z,44.54
2018-05-06T00:16:37.246Z,44.32
2018-05-06T00:19:06.623Z,44.08
2018-05-06T00:21:36.497Z,43.61
2018-05-06T00:24:05.883Z,43.73
2018-05-06T00:26:35.003Z,43.86
2018-05-06T00:29:05.921Z,43.83
2018-05-06T00:31:36.372Z,43.62
2018-05-06T00:34:07.927Z,43.80
2018-05-06T00:36:38.209Z,43.77
2018-05-06T00:39:10.824Z,43.55
2018-05-06T00:41:39.972Z,43.81
2018-05-06T00:44:09.106Z,44.50
2018-05-06T00:46:40.467Z,44.42
2018-05-06T00:49:10.521Z,45.34
2018-05-06T00:51:39.868Z,45.63
2018-05-06T00:54:46.628Z,45.73
2018-05-06T00:57:16.046Z,45.82
2018-05-06T00:59:45.019Z,46.16
2018-05-06T01:02:14.416Z,45.60
2018-05-06T01:04:45.476Z,46.08
2018-05-06T01:07:17.526Z,46.57
2018-05-06T01:09:48.725Z,46.31
2018-05-06T01:12:19.966Z,46.50
2018-05-06T01:14:52.615Z,46.82
2018-05-06T01:17:24.138Z,47.12
2018-05-06T01:19:54.057Z,46.89
2018-05-06T01:22:24.811Z,47.22
2018-05-06T01:24:54.322Z,47.27
2018-05-06T01:27:25.115Z,47.34
2018-05-06T01:29:54.807Z,47.58
2018-05-06T01:32:24.687Z,47.67
2018-05-06T01:34:54.608Z,47.62
2018-05-06T01:37:25.872Z,48.05
2018-05-06T01:39:55.608Z,47.62
2018-05-06T01:42:24.653Z,48.07
2018-05-06T01:44:53.771Z,48.14
2018-05-06T01:47:22.960Z,48.16
2018-05-06T01:49:54.376Z,48.50
2018-05-06T01:52:24.269Z,49.24
2018-05-06T01:54:55.559Z,49.36
2018-05-06T01:57:24.925Z,49.93
2018-05-06T01:59:56.197Z,49.99
2018-05-06T02:02:27.413Z,50.53
2018-05-06T02:04:56.757Z,50.61
2018-05-06T02:07:26.554Z,50.04
2018-05-06T02:09:57.854Z,49.74
2018-05-06T02:12:27.509Z,49.87
2018-05-06T02:14:58.210Z,49.99
2018-05-06T02:17:29.579Z,50.15
2018-05-06T02:20:00.711Z,50.54
2018-05-06T02:22:29.819Z,50.72
2018-05-06T02:24:59.410Z,51.12
2018-05-06T02:27:28.549Z,51.97
2018-05-06T02:29:58.409Z,52.06
2018-05-06T02:32:27.614Z,53.43
2018-05-06T02:34:56.654Z,53.19
2018-05-06T02:37:27.190Z,53.38
2018-05-06T02:40:00.351Z,53.34
2018-05-06T02:42:29.863Z,53.45
2018-05-06T02:45:01.640Z,52.89
2018-05-06T02:47:31.821Z,53.12
2018-05-06T02:50:01.549Z,53.50
2018-05-06T02:52:31.397Z,53.76
2018-05-06T02:55:01.347Z,54.32
2018-05-06T02:57:32.096Z,54.69
2018-05-06T03:00:02.019Z,54.92
2018-05-06T03:02:31.790Z,55.07
2018-05-06T03:05:02.731Z,55.62
2018-05-06T03:07:32.358Z,56.00
2018-05-06T03:10:03.069Z,56.29
2018-05-06T03:12:32.320Z,56.44
2018-05-06T03:15:03.227Z,56.84
2018-05-06T03:17:32.429Z,57.04
2018-05-06T03:20:01.772Z,58.01
2018-05-06T03:22:32.141Z,58.15
2018-05-06T03:25:01.064Z,58.43
2018-05-06T03:27:31.961Z,58.88
2018-05-06T03:30:02.072Z,59.22
2018-05-06T03:32:31.230Z,59.66
2018-05-06T03:35:00.563Z,59.66
2018-05-06T03:37:31.063Z,59.59
2018-05-06T03:40:01.976Z,59.41
2018-05-06T03:42:33.507Z,59.61
2018-05-06T03:45:04.730Z,58.99
2018-05-06T03:47:34.184Z,61.24
2018-05-06T03:50:03.521Z,61.35
2018-05-06T03:52:32.665Z,59.90
2018-05-06T03:55:03.125Z,59.10
2018-05-06T03:58:13.526Z,60.07
2018-05-06T04:00:45.157Z,60.81
2018-05-06T04:03:14.271Z,60.04
2018-05-06T04:05:43.609Z,59.44
2018-05-06T04:08:15.291Z,57.72
2018-05-06T04:10:45.960Z,56.60
2018-05-06T04:13:16.714Z,54.66
2018-05-06T04:15:46.140Z,53.01
2018-05-06T04:18:17.066Z,51.78
2018-05-06T04:20:46.452Z,50.71
2018-05-06T04:23:17.734Z,49.33
2018-05-06T04:25:48.125Z,47.99
2018-05-06T04:28:18.762Z,46.90
2018-05-06T04:30:48.115Z,46.04
2018-05-06T04:33:17.436Z,44.99
2018-05-06T04:35:46.767Z,44.69
2018-05-06T04:38:17.820Z,43.65
2018-05-06T04:40:46.608Z,43.35
2018-05-06T04:43:17.621Z,42.35
2018-05-06T04:45:46.852Z,41.88
2018-05-06T04:48:15.730Z,42.14
2018-05-06T04:50:44.843Z,40.32
2018-05-06T04:53:15.482Z,39.57
2018-05-06T04:55:46.212Z,38.61
2018-05-06T04:58:17.638Z,37.97
2018-05-06T05:00:48.937Z,38.49
2018-05-06T05:03:18.716Z,38.33
2018-05-06T05:05:49.366Z,37.76
2018-05-06T05:08:20.068Z,37.12
2018-05-06T05:10:49.169Z,35.95
2018-05-06T05:13:19.810Z,35.29
2018-05-06T05:15:50.414Z,36.54
2018-05-06T05:18:19.534Z,34.25
2018-05-06T05:20:50.277Z,33.45
2018-05-06T05:23:19.380Z,35.86
2018-05-06T05:25:49.168Z,34.02
2018-05-06T05:28:18.263Z,34.60
2018-05-06T05:30:48.197Z,33.67
2018-05-06T05:33:17.568Z,33.17
2018-05-06T05:35:46.887Z,33.24
2018-05-06T05:38:16.125Z,33.33
2018-05-06T05:40:46.775Z,33.30
2018-05-06T05:43:16.701Z,34.85
2018-05-06T05:45:46.415Z,33.79
2018-05-06T05:48:17.018Z,32.98
2018-05-06T05:50:47.607Z,32.08
2018-05-06T05:53:19.463Z,33.31
2018-05-06T05:55:48.851Z,32.27
2018-05-06T05:58:18.502Z,31.53
2018-05-06T06:00:47.938Z,33.28
2018-05-06T06:03:18.798Z,31.76
2018-05-06T06:05:49.817Z,33.50
2018-05-06T06:08:21.221Z,33.11
2018-05-06T06:10:51.117Z,33.44
2018-05-06T06:13:20.696Z,32.98
2018-05-06T06:15:50.207Z,31.82
2018-05-06T06:18:19.378Z,32.72
2018-05-06T06:20:48.925Z,32.41
2018-05-06T06:23:18.285Z,33.89
2018-05-06T06:25:49.657Z,31.40
2018-05-06T06:28:19.599Z,30.46
2018-05-06T06:30:49.014Z,31.10
2018-05-06T06:33:20.103Z,30.50
2018-05-06T06:35:50.530Z,30.64
2018-05-06T06:38:22.120Z,30.45
2018-05-06T06:40:52.795Z,30.41
2018-05-06T06:43:23.788Z,30.79
2018-05-06T06:45:55.230Z,33.71
2018-05-06T06:48:26.172Z,30.28
2018-05-06T06:50:57.646Z,32.07
2018-05-06T06:53:28.579Z,31.20
2018-05-06T06:55:59.203Z,31.06
2018-05-06T06:58:29.113Z,31.22
2018-05-06T07:00:59.162Z,29.10
2018-05-06T07:03:29.854Z,29.00
2018-05-06T07:05:59.388Z,30.87
2018-05-06T07:08:29.599Z,28.13
2018-05-06T07:10:59.189Z,27.70
2018-05-06T07:13:31.165Z,29.46
2018-05-06T07:16:01.997Z,28.43
2018-05-06T07:18:33.446Z,30.01
2018-05-06T07:21:04.156Z,28.85
2018-05-06T07:23:33.877Z,28.10
2018-05-06T07:26:03.968Z,28.27
2018-05-06T07:28:33.032Z,29.02
2018-05-06T07:31:03.774Z,28.02
2018-05-06T07:33:33.016Z,27.08
2018-05-06T07:36:03.448Z,32.19
2018-05-06T07:38:32.835Z,27.68
2018-05-06T07:41:03.764Z,27.93
2018-05-06T07:43:34.725Z,28.76
2018-05-06T07:46:05.933Z,33.81
2018-05-06T07:48:36.566Z,29.24
2018-05-06T07:51:05.943Z,29.68
2018-05-06T07:53:36.339Z,28.99
2018-05-06T07:56:07.057Z,32.26
2018-05-06T07:58:36.300Z,29.75
2018-05-06T08:01:07.082Z,32.88
2018-05-06T08:03:35.991Z,31.21
2018-05-06T08:06:06.947Z,29.96
2018-05-06T08:08:37.327Z,30.13
2018-05-06T08:11:08.200Z,28.49
2018-05-06T08:13:38.711Z,28.41
2018-05-06T08:16:08.655Z,27.91
2018-05-06T08:18:38.534Z,28.73
2018-05-06T08:21:08.547Z,28.41
2018-05-06T08:23:40.032Z,28.05
2018-05-06T08:26:10.615Z,30.17
2018-05-06T08:28:41.268Z,27.18
2018-05-06T08:31:11.240Z,28.37
2018-05-06T08:33:40.537Z,27.80
2018-05-06T08:36:09.969Z,30.24
2018-05-06T08:38:39.360Z,30.44
2018-05-06T08:41:10.677Z,30.17
2018-05-06T08:43:42.131Z,26.58
2018-05-06T08:46:11.771Z,26.64
2018-05-06T08:48:42.237Z,30.19
2018-05-06T08:51:11.552Z,28.23
2018-05-06T08:53:42.000Z,26.34
2018-05-06T08:56:12.647Z,26.23
2018-05-06T08:58:43.709Z,27.34
2018-05-06T09:01:12.599Z,29.16
2018-05-06T09:03:41.728Z,26.26
2018-05-06T09:06:11.673Z,25.57
2018-05-06T09:08:43.177Z,25.33
2018-05-06T09:11:12.882Z,25.78
2018-05-06T09:13:43.918Z,26.16
2018-05-06T09:16:14.947Z,26.19
2018-05-06T09:18:45.867Z,25.86
2018-05-06T09:21:16.283Z,28.75
2018-05-06T09:23:47.259Z,26.55
2018-05-06T09:26:16.146Z,24.24
2018-05-06T09:28:46.030Z,24.90
2018-05-06T09:31:17.760Z,24.73
2018-05-06T09:33:47.196Z,24.87
2018-05-06T09:36:16.251Z,25.55
2018-05-06T09:38:47.305Z,25.98
2018-05-06T09:41:18.899Z,24.63
2018-05-06T09:43:49.572Z,26.47
2018-05-06T09:46:20.616Z,26.45
2018-05-06T09:48:51.068Z,26.70
2018-05-06T09:51:20.960Z,25.67
2018-05-06T09:53:50.500Z,25.86
2018-05-06T09:56:19.333Z,27.82
2018-05-06T09:58:50.225Z,26.16
2018-05-06T10:01:20.249Z,25.49
2018-05-06T10:03:49.434Z,27.98
2018-05-06T10:06:18.774Z,26.03
2018-05-06T10:08:47.946Z,26.18
2018-05-06T10:11:17.487Z,28.82
2018-05-06T10:13:46.855Z,32.18
2018-05-06T10:16:17.563Z,26.29
2018-05-06T10:18:48.708Z,27.05
2018-05-06T10:21:18.479Z,28.13
2018-05-06T10:23:49.467Z,26.50
2018-05-06T10:26:19.965Z,29.09
2018-05-06T10:28:49.290Z,26.55
2018-05-06T10:31:18.180Z,26.07
2018-05-06T10:33:48.064Z,26.20
2018-05-06T10:36:17.583Z,26.86
2018-05-06T10:38:46.473Z,30.25
2018-05-06T10:41:17.285Z,27.75
2018-05-06T10:43:48.115Z,27.17
2018-05-06T10:46:19.298Z,26.25
2018-05-06T10:48:50.200Z,29.50
2018-05-06T10:51:19.745Z,28.77
2018-05-06T10:53:49.211Z,30.80
2018-05-06T10:56:20.669Z,28.20
2018-05-06T10:58:51.402Z,31.58
2018-05-06T11:01:21.112Z,30.05
2018-05-06T11:03:50.279Z,27.57
2018-05-06T11:06:21.073Z,29.72
2018-05-06T11:08:50.590Z,30.16
2018-05-06T11:11:21.264Z,28.29
2018-05-06T11:13:52.541Z,29.18
2018-05-06T11:16:21.924Z,28.44
2018-05-06T11:18:51.137Z,31.01
2018-05-06T11:21:22.586Z,28.13
2018-05-06T11:23:52.219Z,29.82
2018-05-06T11:26:21.964Z,28.99
2018-05-06T11:28:52.309Z,30.88
2018-05-06T11:31:23.059Z,27.27
2018-05-06T11:33:52.485Z,32.32
2018-05-06T11:36:23.172Z,28.53
2018-05-06T11:38:53.527Z,29.02
2018-05-06T11:41:24.919Z,31.14
2018-05-06T11:43:55.302Z,31.82
2018-05-06T11:46:25.127Z,29.73
2018-05-06T11:48:55.031Z,28.54
2018-05-06T11:51:26.241Z,30.74
2018-05-06T11:53:57.138Z,30.10
2018-05-06T11:56:26.646Z,31.98
2018-05-06T11:58:55.729Z,29.54
2018-05-06T12:01:26.441Z,30.22
2018-05-06T12:03:55.851Z,29.52
2018-05-06T12:06:24.731Z,30.69
2018-05-06T12:08:53.631Z,28.72
2018-05-06T12:11:23.021Z,30.33
2018-05-06T12:13:52.845Z,29.51
2018-05-06T12:16:23.797Z,33.29
2018-05-06T12:18:55.321Z,31.69
2018-05-06T12:21:26.156Z,34.03
2018-05-06T12:23:57.510Z,30.80
2018-05-06T12:26:27.416Z,30.26
2018-05-06T12:28:56.746Z,32.28
2018-05-06T12:31:27.660Z,31.58
2018-05-06T12:33:56.744Z,29.89
2018-05-06T12:36:27.464Z,29.13
2018-05-06T12:38:58.935Z,33.57
2018-05-06T12:41:30.379Z,30.26
2018-05-06T12:44:01.610Z,29.61
2018-05-06T12:46:31.273Z,32.05
2018-05-06T12:49:00.833Z,28.72
2018-05-06T12:51:31.459Z,29.35
2018-05-06T12:54:00.568Z,31.57
2018-05-06T12:56:31.401Z,32.94
2018-05-06T12:59:00.769Z,31.09
2018-05-06T13:01:30.563Z,29.14
2018-05-06T13:04:01.273Z,33.10
2018-05-06T13:06:32.169Z,29.10
2018-05-06T13:09:02.870Z,29.08
2018-05-06T13:11:33.598Z,30.54
2018-05-06T13:14:04.115Z,30.02
2018-05-06T13:16:35.004Z,30.22
2018-05-06T13:19:05.342Z,31.60
2018-05-06T13:21:37.282Z,29.39
2018-05-06T13:24:06.916Z,30.24
2018-05-06T13:26:37.336Z,28.73
2018-05-06T13:29:08.148Z,28.19
2018-05-06T13:31:38.893Z,28.07
2018-05-06T13:34:08.045Z,28.01
2018-05-06T13:36:38.712Z,27.47
2018-05-06T13:39:09.610Z,29.65
2018-05-06T13:41:40.511Z,28.49
2018-05-06T13:44:11.134Z,29.62
2018-05-06T13:46:41.721Z,27.61
2018-05-06T13:49:11.412Z,27.48
2018-05-06T13:51:42.496Z,27.03
2018-05-06T13:54:12.120Z,27.38
2018-05-06T13:56:43.352Z,28.94
2018-05-06T13:59:14.552Z,27.36
2018-05-06T14:01:44.181Z,27.50
2018-05-06T14:04:13.277Z,25.62
2018-05-06T14:06:44.194Z,27.88
2018-05-06T14:09:15.952Z,25.59
2018-05-06T14:11:45.031Z,27.12
2018-05-06T14:14:15.764Z,26.56
2018-05-06T14:16:45.531Z,26.97
2018-05-06T14:19:15.441Z,26.23
2018-05-06T14:21:44.601Z,26.66
2018-05-06T14:24:15.822Z,25.10
2018-05-06T14:26:44.929Z,25.51
2018-05-06T14:29:15.817Z,26.61
2018-05-06T14:31:47.259Z,27.58
2018-05-06T14:34:16.152Z,25.83
2018-05-06T14:36:44.996Z,27.76
2018-05-06T14:39:15.625Z,27.71
2018-05-06T14:41:46.536Z,26.71
2018-05-06T14:44:16.270Z,25.48
2018-05-06T14:47:26.973Z,27.20
2018-05-06T14:49:56.086Z,26.92
2018-05-06T14:52:25.171Z,28.29
2018-05-06T14:54:55.979Z,25.97
2018-05-06T14:57:25.553Z,28.47
2018-05-06T14:59:56.165Z,27.29
2018-05-06T15:02:25.227Z,29.82
2018-05-06T15:04:54.904Z,26.56
2018-05-06T15:07:25.306Z,29.24
2018-05-06T15:09:54.666Z,27.64
2018-05-06T15:12:25.535Z,28.13
2018-05-06T15:14:56.160Z,28.62
2018-05-06T15:17:26.119Z,27.97
2018-05-06T15:19:55.428Z,27.21
2018-05-06T15:22:25.822Z,29.12
2018-05-06T15:24:54.864Z,27.13
2018-05-06T15:27:25.654Z,26.24
2018-05-06T15:29:54.963Z,27.54
2018-05-06T15:32:24.093Z,25.59
2018-05-06T15:34:54.190Z,26.93
2018-05-06T15:37:23.449Z,30.66
2018-05-06T15:39:52.804Z,27.83
2018-05-06T15:42:23.497Z,28.83
2018-05-06T15:44:52.820Z,30.94
2018-05-06T15:47:23.007Z,27.52
2018-05-06T15:49:52.149Z,25.68
2018-05-06T15:52:22.735Z,26.45
2018-05-06T15:54:53.688Z,26.12
2018-05-06T15:57:23.495Z,27.56
2018-05-06T15:59:54.308Z,26.35
2018-05-06T16:03:04.049Z,28.86
2018-05-06T16:05:34.405Z,28.35
2018-05-06T16:08:03.436Z,30.15
2018-05-06T16:10:34.185Z,27.44
2018-05-06T16:13:03.576Z,27.52
2018-05-06T16:15:34.255Z,25.82
2018-05-06T16:18:03.621Z,28.59
2018-05-06T16:20:34.020Z,27.69
2018-05-06T16:23:04.729Z,28.45
2018-05-06T16:25:35.921Z,26.94
2018-05-06T16:28:04.738Z,28.92
2018-05-06T16:30:33.821Z,27.88
2018-05-06T16:33:04.629Z,26.62
2018-05-06T16:35:36.034Z,28.78
2018-05-06T16:38:06.887Z,29.22
2018-05-06T16:40:37.707Z,28.71
2018-05-06T16:43:06.695Z,28.14
2018-05-06T16:45:35.542Z,30.12
2018-05-06T16:48:06.290Z,28.38
2018-05-06T16:50:37.227Z,30.89
2018-05-06T16:53:06.775Z,29.95
2018-05-06T16:55:37.100Z,29.59
2018-05-06T16:58:07.810Z,30.41
2018-05-06T17:00:38.589Z,29.61
2018-05-06T17:03:07.968Z,30.64
2018-05-06T17:05:38.524Z,31.21
2018-05-06T17:08:09.119Z,30.88
2018-05-06T17:10:40.500Z,29.90
2018-05-06T17:13:11.215Z,30.84
2018-05-06T17:15:42.359Z,30.02
2018-05-06T17:18:13.818Z,29.99
2018-05-06T17:20:45.223Z,30.29
2018-05-06T17:23:16.132Z,31.51
2018-05-06T17:25:47.071Z,29.83
2018-05-06T17:28:15.964Z,30.96
2018-05-06T17:30:45.035Z,30.77
2018-05-06T17:33:14.092Z,31.98
2018-05-06T17:35:43.322Z,32.68
2018-05-06T17:38:12.456Z,31.53
2018-05-06T17:40:43.071Z,31.38
2018-05-06T17:43:12.231Z,32.04
2018-05-06T17:45:43.511Z,32.03
2018-05-06T17:48:15.347Z,32.70
2018-05-06T17:50:45.764Z,32.29
2018-05-06T17:53:17.029Z,32.89
2018-05-06T17:55:48.815Z,33.23
2018-05-06T17:58:17.959Z,34.07
2018-05-06T18:00:47.300Z,35.50
2018-05-06T18:03:16.443Z,34.06
2018-05-06T18:05:45.740Z,33.29
2018-05-06T18:08:16.308Z,33.10
2018-05-06T18:10:45.649Z,33.28
2018-05-06T18:13:16.519Z,33.61
2018-05-06T18:15:45.396Z,33.81
2018-05-06T18:18:15.003Z,33.74
2018-05-06T18:20:44.073Z,33.74
2018-05-06T18:23:13.328Z,34.34
2018-05-06T18:25:44.067Z,35.09
2018-05-06T18:28:13.108Z,35.81
2018-05-06T18:30:43.998Z,36.44
2018-05-06T18:33:13.391Z,36.37
2018-05-06T18:35:42.722Z,36.41
2018-05-06T18:38:13.354Z,35.64
2018-05-06T18:40:43.205Z,35.56
2018-05-06T18:43:14.534Z,36.09
2018-05-06T18:45:45.405Z,35.61
2018-05-06T18:48:15.193Z,35.30
2018-05-06T18:50:47.347Z,35.04
2018-05-06T18:53:18.860Z,35.15
2018-05-06T18:55:48.427Z,35.42
2018-05-06T18:58:19.307Z,35.68
2018-05-06T19:00:50.541Z,35.81
2018-05-06T19:03:22.031Z,36.21
2018-05-06T19:05:51.708Z,36.37
2018-05-06T19:08:21.139Z,36.50
2018-05-06T19:10:51.877Z,36.60
2018-05-06T19:13:22.592Z,36.80
2018-05-06T19:15:51.954Z,36.89
2018-05-06T19:18:21.340Z,36.97
2018-05-06T19:20:50.545Z,37.16
2018-05-06T19:23:19.911Z,37.28
2018-05-06T19:25:49.018Z,37.88
2018-05-06T19:28:19.752Z,37.73
2018-05-06T19:30:50.670Z,38.03
2018-05-06T19:33:22.413Z,38.59
2018-05-06T19:35:52.242Z,38.88
2018-05-06T19:38:21.650Z,38.98
2018-05-06T19:40:51.322Z,38.83
2018-05-06T19:43:20.536Z,38.63
2018-05-06T19:45:49.694Z,38.94
2018-05-06T19:48:18.930Z,39.37
2018-05-06T19:50:49.869Z,39.65
2018-05-06T19:53:20.769Z,40.22
2018-05-06T19:55:50.606Z,40.38
2018-05-06T19:58:19.976Z,40.49
2018-05-06T20:00:49.809Z,40.91
2018-05-06T20:03:19.229Z,41.71
2018-05-06T20:05:49.591Z,41.97
2018-05-06T20:08:20.492Z,42.09
2018-05-06T20:10:49.868Z,42.10
2018-05-06T20:13:20.157Z,42.16
2018-05-06T20:15:51.045Z,42.02
2018-05-06T20:18:21.935Z,42.58
2018-05-06T20:20:51.115Z,43.17
2018-05-06T20:23:22.136Z,43.17
2018-05-06T20:25:51.812Z,43.40
2018-05-06T20:28:21.693Z,43.80
2018-05-06T20:30:53.087Z,43.90
2018-05-06T20:33:22.686Z,43.98
2018-05-06T20:35:53.538Z,44.21
2018-05-06T20:38:27.752Z,44.30
2018-05-06T20:40:58.567Z,44.63
2018-05-06T20:43:29.331Z,44.47
2018-05-06T20:46:00.649Z,44.35
2018-05-06T20:48:31.525Z,44.67
2018-05-06T20:51:01.763Z,44.93
2018-05-06T20:53:32.206Z,44.92
2018-05-06T20:56:03.126Z,45.05
2018-05-06T20:58:34.082Z,45.30
2018-05-06T21:01:04.044Z,45.49
2018-05-06T21:03:34.800Z,45.55
2018-05-06T21:06:03.938Z,45.58
2018-05-06T21:08:34.652Z,45.52
2018-05-06T21:11:03.758Z,45.92
2018-05-06T21:13:32.864Z,46.35
2018-05-06T21:16:05.276Z,46.81
2018-05-06T21:18:35.695Z,46.99
2018-05-06T21:21:05.673Z,47.41
2018-05-06T21:23:35.102Z,47.59
2018-05-06T21:26:04.238Z,47.92
2018-05-06T21:28:35.323Z,48.35
2018-05-06T21:31:04.553Z,48.68
2018-05-06T21:33:34.500Z,48.89
2018-05-06T21:36:03.764Z,48.85
2018-05-06T21:38:32.913Z,48.81
2018-05-06T21:41:03.595Z,49.04
2018-05-06T21:43:34.408Z,48.93
2018-05-06T21:46:03.766Z,49.35
2018-05-06T21:48:34.461Z,49.69
2018-05-06T21:51:05.397Z,49.70
2018-05-06T21:53:35.279Z,50.17
2018-05-06T21:56:04.763Z,50.27
2018-05-06T21:58:35.525Z,50.28
2018-05-06T22:01:07.150Z,50.31
2018-05-06T22:03:37.178Z,50.71
2018-05-06T22:06:08.081Z,50.92
2018-05-06T22:08:39.117Z,50.85
2018-05-06T22:11:10.021Z,51.34
2018-05-06T22:13:39.874Z,51.46
2018-05-06T22:16:09.232Z,51.54
2018-05-06T22:18:38.999Z,51.59
2018-05-06T22:21:08.684Z,52.12
2018-05-06T22:23:38.244Z,52.35
2018-05-06T22:26:09.386Z,52.58
2018-05-06T22:28:40.285Z,52.80
2018-05-06T22:31:09.689Z,53.09
2018-05-06T22:33:40.497Z,53.41
2018-05-06T22:36:11.650Z,53.46
2018-05-06T22:38:42.780Z,53.99
2018-05-06T22:41:12.178Z,54.01
2018-05-06T22:43:42.776Z,54.18
2018-05-06T22:46:13.481Z,54.39
2018-05-06T22:48:44.388Z,54.53
2018-05-06T22:51:14.141Z,55.22
2018-05-06T22:53:44.967Z,55.51
2018-05-06T22:56:14.956Z,56.06
2018-05-06T22:58:43.843Z,56.44
2018-05-06T23:01:13.471Z,56.79
2018-05-06T23:03:43.530Z,57.30
2018-05-06T23:06:14.319Z,57.45
2018-05-06T23:08:45.909Z,57.87
2018-05-06T23:11:15.309Z,58.20
2018-05-06T23:13:45.985Z,58.52
2018-05-06T23:16:15.380Z,58.88
2018-05-06T23:18:45.039Z,59.51
2018-05-06T23:21:15.748Z,59.16
2018-05-06T23:23:46.625Z,59.13
2018-05-06T23:26:15.699Z,59.27
2018-05-06T23:28:46.447Z,59.59
2018-05-06T23:31:17.558Z,59.50
2018-05-06T23:33:47.459Z,59.67
2018-05-06T23:36:18.888Z,59.78
2018-05-06T23:38:48.922Z,60.47
2018-05-06T23:41:18.052Z,60.78
2018-05-06T23:43:49.571Z,61.10
2018-05-06T23:46:20.333Z,61.15
2018-05-06T23:48:51.292Z,61.37
2018-05-06T23:51:22.701Z,61.50
2018-05-06T23:53:53.782Z,61.55
2018-05-06T23:56:23.794Z,61.65
2018-05-06T23:58:52.892Z,61.94
